createdAt,value
2018-05-09T00:01:33.382Z,3.97
2018-05-09T00:04:02.010Z,4.10
2018-05-09T00:06:30.629Z,3.63
2018-05-09T00:08:59.271Z,4.00
2018-05-09T00:11:27.913Z,3.80
2018-05-09T00:13:59.293Z,3.60
2018-05-09T00:16:31.448Z,3.70
2018-05-09T00:19:00.265Z,4.13
2018-05-09T00:21:29.199Z,3.83
2018-05-09T00:23:58.280Z,4.00
2018-05-09T00:26:27.846Z,3.70
2018-05-09T00:28:56.906Z,3.67
2018-05-09T00:31:26.263Z,3.80
2018-05-09T00:33:55.415Z,4.03
2018-05-09T00:36:23.944Z,4.33
2018-05-09T00:38:54.791Z,4.60
2018-05-09T00:41:23.423Z,3.80
2018-05-09T00:43:59.419Z,3.93
2018-05-09T00:46:28.026Z,4.03
2018-05-09T00:48:56.856Z,3.97
2018-05-09T00:51:25.468Z,3.70
2018-05-09T00:53:54.121Z,4.60
2018-05-09T00:56:23.772Z,4.00
2018-05-09T00:58:52.404Z,3.80
2018-05-09T01:01:21.015Z,4.13
2018-05-09T01:03:49.673Z,3.90
2018-05-09T01:06:18.295Z,4.72
2018-05-09T01:08:54.314Z,4.60
2018-05-09T01:11:22.949Z,4.27
2018-05-09T01:13:51.568Z,4.27
2018-05-09T01:16:20.209Z,3.80
2018-05-09T01:18:48.812Z,4.17
2018-05-09T01:21:17.454Z,4.33
2018-05-09T01:23:46.079Z,4.23
2018-05-09T01:26:14.786Z,5.15
2018-05-09T01:28:43.330Z,4.10
2018-05-09T01:31:11.971Z,4.70
2018-05-09T01:33:40.590Z,5.53
2018-05-09T01:36:09.256Z,4.70
2018-05-09T01:38:39.968Z,5.57
2018-05-09T01:41:08.605Z,5.20
2018-05-09T01:43:37.216Z,4.67
2018-05-09T01:46:05.848Z,5.00
2018-05-09T01:48:34.468Z,4.50
2018-05-09T01:51:03.153Z,5.03
2018-05-09T01:53:31.776Z,4.93
2018-05-09T01:56:00.435Z,5.00
2018-05-09T01:58:29.080Z,4.70
2018-05-09T02:00:57.715Z,4.80
2018-05-09T02:03:26.373Z,5.37
2018-05-09T02:05:54.992Z,4.93
2018-05-09T02:08:23.633Z,5.07
2018-05-09T02:10:52.406Z,5.30
2018-05-09T02:13:21.046Z,5.27
2018-05-09T02:15:49.676Z,5.28
2018-05-09T02:18:18.318Z,5.30
2018-05-09T02:20:46.958Z,5.70
2018-05-09T02:23:15.634Z,5.63
2018-05-09T02:25:44.253Z,5.27
2018-05-09T02:28:12.901Z,5.23
2018-05-09T02:30:41.508Z,5.10
2018-05-09T02:33:10.157Z,5.17
2018-05-09T02:35:38.767Z,4.63
2018-05-09T02:38:07.410Z,4.37
2018-05-09T02:40:36.273Z,5.03
2018-05-09T02:43:04.881Z,5.17
2018-05-09T02:45:33.528Z,4.90
2018-05-09T02:48:02.161Z,4.47
2018-05-09T02:50:30.808Z,4.67
2018-05-09T02:52:59.482Z,4.90
2018-05-09T02:55:28.124Z,4.30
2018-05-09T02:57:56.744Z,5.70
2018-05-09T03:00:25.399Z,5.43
2018-05-09T03:02:54.058Z,6.30
2018-05-09T03:05:22.701Z,5.00
2018-05-09T03:07:51.343Z,4.87
2018-05-09T03:10:19.980Z,5.40
2018-05-09T03:12:48.589Z,5.63
2018-05-09T03:15:17.246Z,5.83
2018-05-09T03:17:46.020Z,5.10
2018-05-09T03:20:14.687Z,6.70
2018-05-09T03:22:44.927Z,5.97
2018-05-09T03:25:13.829Z,5.00
2018-05-09T03:27:44.316Z,5.43
2018-05-09T03:30:14.803Z,5.30
2018-05-09T03:32:43.674Z,4.93
2018-05-09T03:35:12.565Z,4.50
2018-05-09T03:37:41.205Z,4.68
2018-05-09T03:40:09.866Z,4.30
2018-05-09T03:42:38.508Z,4.40
2018-05-09T03:45:07.155Z,4.30
2018-05-09T03:47:35.794Z,5.25
2018-05-09T03:50:04.424Z,4.67
2018-05-09T03:52:33.042Z,4.97
2018-05-09T03:55:01.630Z,4.60
2018-05-09T03:57:30.643Z,5.67
2018-05-09T03:59:59.244Z,5.83
2018-05-09T04:03:05.168Z,4.73
2018-05-09T04:06:10.799Z,4.03
2018-05-09T04:09:16.911Z,4.77
2018-05-09T04:11:45.870Z,4.30
2018-05-09T04:14:14.681Z,5.57
2018-05-09T04:16:43.875Z,4.70
2018-05-09T04:19:12.944Z,5.30
2018-05-09T04:21:41.782Z,5.90
2018-05-09T04:24:10.974Z,5.50
2018-05-09T04:26:39.740Z,5.40
2018-05-09T04:29:08.823Z,5.70
2018-05-09T04:31:38.454Z,4.80
2018-05-09T04:34:07.349Z,4.60
2018-05-09T04:36:36.518Z,4.33
2018-05-09T04:39:05.289Z,5.57
2018-05-09T04:41:34.349Z,6.07
2018-05-09T04:44:03.536Z,5.90
2018-05-09T04:46:32.514Z,5.27
2018-05-09T04:49:01.286Z,6.20
2018-05-09T04:51:30.213Z,6.13
2018-05-09T04:53:58.842Z,6.07
2018-05-09T04:56:27.437Z,6.50
2018-05-09T04:58:56.043Z,6.10
2018-05-09T05:01:24.678Z,6.17
2018-05-09T05:03:53.277Z,6.63
2018-05-09T05:06:21.919Z,7.00
2018-05-09T05:08:50.529Z,6.93
2018-05-09T05:11:19.185Z,6.57
2018-05-09T05:13:50.238Z,7.50
2018-05-09T05:16:18.888Z,7.03
2018-05-09T05:18:47.493Z,7.43
2018-05-09T05:21:16.127Z,7.10
2018-05-09T05:23:44.736Z,6.80
2018-05-09T05:26:13.380Z,6.17
2018-05-09T05:28:41.977Z,6.37
2018-05-09T05:31:10.590Z,6.67
2018-05-09T05:33:39.245Z,6.53
2018-05-09T05:36:07.848Z,7.32
2018-05-09T05:38:36.477Z,6.63
2018-05-09T05:41:05.094Z,7.50
2018-05-09T05:43:33.729Z,6.20
2018-05-09T05:46:02.352Z,6.47
2018-05-09T05:48:30.988Z,7.65
2018-05-09T05:50:59.590Z,6.37
2018-05-09T05:53:28.234Z,6.93
2018-05-09T05:55:56.848Z,7.00
2018-05-09T05:58:25.483Z,6.23
2018-05-09T06:00:54.082Z,6.50
2018-05-09T06:03:22.748Z,6.30
2018-05-09T06:05:51.359Z,6.03
2018-05-09T06:08:19.962Z,6.43
2018-05-09T06:10:48.597Z,5.73
2018-05-09T06:13:17.197Z,6.70
2018-05-09T06:15:45.978Z,5.73
2018-05-09T06:18:14.576Z,6.17
2018-05-09T06:20:43.413Z,6.77
2018-05-09T06:23:14.893Z,6.30
2018-05-09T06:25:43.541Z,6.17
2018-05-09T06:28:12.168Z,6.77
2018-05-09T06:30:40.810Z,7.35
2018-05-09T06:33:09.443Z,6.93
2018-05-09T06:35:38.099Z,7.70
2018-05-09T06:38:06.745Z,6.87
2018-05-09T06:40:35.447Z,6.78
2018-05-09T06:43:04.027Z,6.75
2018-05-09T06:45:32.938Z,6.57
2018-05-09T06:48:01.525Z,6.12
2018-05-09T06:50:30.133Z,6.18
2018-05-09T06:52:58.792Z,5.28
2018-05-09T06:55:27.401Z,5.28
2018-05-09T06:57:56.054Z,5.15
2018-05-09T07:00:24.666Z,4.87
2018-05-09T07:02:53.319Z,4.95
2018-05-09T07:05:21.928Z,5.22
2018-05-09T07:07:50.590Z,5.10
2018-05-09T07:10:19.195Z,5.18
2018-05-09T07:12:47.825Z,5.25
2018-05-09T07:15:18.700Z,5.37
2018-05-09T07:17:48.330Z,4.82
2018-05-09T07:20:16.964Z,5.10
2018-05-09T07:22:45.617Z,4.90
2018-05-09T07:25:14.216Z,4.72
2018-05-09T07:27:42.865Z,4.50
2018-05-09T07:30:11.488Z,4.68
2018-05-09T07:32:40.181Z,4.43
2018-05-09T07:35:08.815Z,4.50
2018-05-09T07:37:37.439Z,4.55
2018-05-09T07:40:06.072Z,4.47
2018-05-09T07:42:34.715Z,4.50
2018-05-09T07:45:05.865Z,4.40
2018-05-09T07:47:34.501Z,4.57
2018-05-09T07:50:03.144Z,4.18
2018-05-09T07:52:31.773Z,4.18
2018-05-09T07:55:00.412Z,4.15
2018-05-09T07:57:29.040Z,4.78
2018-05-09T07:59:57.684Z,3.58
2018-05-09T08:02:26.310Z,3.87
2018-05-09T08:04:54.963Z,4.00
2018-05-09T08:07:23.592Z,4.03
2018-05-09T08:09:52.247Z,3.40
2018-05-09T08:12:20.851Z,3.70
2018-05-09T08:14:49.446Z,3.80
2018-05-09T08:17:19.586Z,3.78
2018-05-09T08:19:48.422Z,3.85
2018-05-09T08:22:19.025Z,3.47
2018-05-09T08:24:47.769Z,3.25
2018-05-09T08:27:16.853Z,3.95
2018-05-09T08:29:47.048Z,3.37
2018-05-09T08:32:17.055Z,3.05
2018-05-09T08:34:46.897Z,3.60
2018-05-09T08:37:17.652Z,3.20
2018-05-09T08:39:46.549Z,3.45
2018-05-09T08:42:17.915Z,3.30
2018-05-09T08:44:50.527Z,3.65
2018-05-09T08:47:22.616Z,3.37
2018-05-09T08:49:57.334Z,3.20
2018-05-09T08:52:34.627Z,3.08
2018-05-09T08:55:06.646Z,2.62
2018-05-09T08:57:40.320Z,3.87
2018-05-09T09:00:10.723Z,2.78
2018-05-09T09:02:42.716Z,2.35
2018-05-09T09:05:15.587Z,2.62
2018-05-09T09:07:44.831Z,2.80
2018-05-09T09:10:13.557Z,2.97
2018-05-09T09:12:46.481Z,2.90
2018-05-09T09:15:17.267Z,2.35
2018-05-09T09:17:47.481Z,2.30
2018-05-09T09:20:17.726Z,2.42
2018-05-09T09:22:47.755Z,2.70
2018-05-09T09:25:19.801Z,2.92
2018-05-09T09:27:49.974Z,3.12
2018-05-09T09:30:22.854Z,3.08
2018-05-09T09:32:55.239Z,4.00
2018-05-09T09:35:25.593Z,3.00
2018-05-09T09:38:08.959Z,3.30
2018-05-09T09:40:39.321Z,3.40
2018-05-09T09:43:10.810Z,3.05
2018-05-09T09:45:45.795Z,3.10
2018-05-09T09:53:57.280Z,3.47
2018-05-09T09:56:26.370Z,2.70
2018-05-09T09:58:59.988Z,3.35
2018-05-09T10:01:33.025Z,3.10
2018-05-09T10:04:10.800Z,2.65
2018-05-09T10:06:44.485Z,2.65
2018-05-09T10:09:17.121Z,3.33
2018-05-09T10:11:49.238Z,3.03
2018-05-09T10:14:21.143Z,3.20
2018-05-09T10:16:52.587Z,3.28
2018-05-09T10:19:24.038Z,3.40
2018-05-09T10:21:56.705Z,3.70
2018-05-09T10:24:31.759Z,3.92
2018-05-09T10:27:03.510Z,3.70
2018-05-09T10:29:43.338Z,3.42
2018-05-09T10:35:07.251Z,3.80
2018-05-09T10:37:36.859Z,3.50
2018-05-09T10:40:07.060Z,3.28
2018-05-09T10:42:45.434Z,3.00
2018-05-09T10:48:05.932Z,3.25
2018-05-09T10:50:42.176Z,3.87
2018-05-09T10:53:14.366Z,3.35
2018-05-09T10:55:52.114Z,3.78
2018-05-09T10:58:33.628Z,4.03
2018-05-09T11:01:07.247Z,4.10
2018-05-09T11:06:27.824Z,4.07
2018-05-09T11:09:06.257Z,4.05
2018-05-09T11:11:45.200Z,4.05
2018-05-09T11:17:07.106Z,4.20
2018-05-09T11:19:44.937Z,4.20
2018-05-09T11:25:05.201Z,3.53
2018-05-09T11:27:34.966Z,3.85
2018-05-09T11:30:04.422Z,3.45
2018-05-09T11:32:33.963Z,3.58
2018-05-09T11:35:09.153Z,4.18
2018-05-09T11:37:38.165Z,3.70
2018-05-09T11:40:08.709Z,3.90
2018-05-09T11:42:37.525Z,3.80
2018-05-09T11:45:06.199Z,4.40
2018-05-09T11:47:36.905Z,3.45
2018-05-09T11:50:06.821Z,3.45
2018-05-09T11:52:52.264Z,4.00
2018-05-09T11:55:21.114Z,3.50
2018-05-09T12:00:37.379Z,3.50
2018-05-09T12:03:09.865Z,3.12
2018-05-09T12:05:38.896Z,3.42
2018-05-09T12:08:08.205Z,2.97
2018-05-09T12:10:36.978Z,2.90
2018-05-09T12:13:05.606Z,3.15
2018-05-09T12:15:34.327Z,3.00
2018-05-09T12:20:51.903Z,3.12
2018-05-09T12:23:21.082Z,3.05
2018-05-09T12:25:50.148Z,3.60
2018-05-09T12:28:21.155Z,2.90
2018-05-09T12:30:57.145Z,3.25
2018-05-09T12:33:31.764Z,3.45
2018-05-09T12:36:07.411Z,3.10
2018-05-09T12:41:25.834Z,3.10
2018-05-09T12:44:10.138Z,2.92
2018-05-09T12:46:40.499Z,3.10
2018-05-09T12:49:09.299Z,3.12
2018-05-09T12:51:39.253Z,3.05
2018-05-09T12:56:55.471Z,2.85
2018-05-09T12:59:25.087Z,2.87
2018-05-09T13:01:54.118Z,2.67
2018-05-09T13:04:23.159Z,1.65
2018-05-09T13:06:53.998Z,2.03
2018-05-09T13:09:30.846Z,2.30
2018-05-09T13:12:03.380Z,1.70
2018-05-09T13:14:34.608Z,2.10
2018-05-09T13:17:08.187Z,1.98
2018-05-09T13:19:40.583Z,1.90
2018-05-09T13:22:09.538Z,3.30
2018-05-09T13:24:38.234Z,2.10
2018-05-09T13:27:06.974Z,2.30
2018-05-09T13:29:37.853Z,2.28
2018-05-09T13:32:07.598Z,2.25
2018-05-09T13:34:37.213Z,2.62
2018-05-09T13:37:25.042Z,2.23
2018-05-09T13:42:49.517Z,2.62
2018-05-09T13:48:11.416Z,2.60
2018-05-09T13:50:43.221Z,2.50
2018-05-09T13:56:09.192Z,2.78
2018-05-09T13:58:40.639Z,2.72
2018-05-09T14:01:11.879Z,2.50
2018-05-09T14:03:50.888Z,2.40
2018-05-09T14:06:20.053Z,2.78
2018-05-09T14:08:52.376Z,2.40
2018-05-09T14:11:29.083Z,2.20
2018-05-09T14:13:58.729Z,2.40
2018-05-09T14:16:27.447Z,2.37
2018-05-09T14:18:58.117Z,2.45
2018-05-09T14:21:26.777Z,2.85
2018-05-09T14:24:03.941Z,2.40
2018-05-09T14:26:33.702Z,2.75
2018-05-09T14:29:05.098Z,2.55
2018-05-09T14:34:21.676Z,2.30
2018-05-09T14:36:50.932Z,2.65
2018-05-09T14:39:23.908Z,2.80
2018-05-09T14:41:53.023Z,2.87
2018-05-09T14:44:23.749Z,2.97
2018-05-09T14:47:03.599Z,3.10
2018-05-09T14:49:39.303Z,2.60
2018-05-09T14:52:09.228Z,3.37
2018-05-09T14:57:28.622Z,2.62
2018-05-09T15:00:10.377Z,2.50
2018-05-09T15:02:42.032Z,2.85
2018-05-09T15:05:10.919Z,3.62
2018-05-09T15:07:39.554Z,3.17
2018-05-09T15:10:08.239Z,2.67
2018-05-09T15:12:36.900Z,2.78
2018-05-09T15:15:06.095Z,2.60
2018-05-09T15:20:30.223Z,2.62
2018-05-09T15:23:16.117Z,2.65
2018-05-09T15:25:50.940Z,2.83
2018-05-09T15:28:25.186Z,2.50
2018-05-09T15:33:52.332Z,2.83
2018-05-09T15:36:22.754Z,2.95
2018-05-09T15:38:55.269Z,3.10
2018-05-09T15:41:28.431Z,2.47
2018-05-09T15:43:58.843Z,2.40
2018-05-09T15:46:28.125Z,3.25
2018-05-09T15:48:57.101Z,2.62
2018-05-09T15:51:26.207Z,3.50
2018-05-09T15:53:55.426Z,3.00
2018-05-09T15:56:25.368Z,3.15
2018-05-09T15:58:54.402Z,3.00
2018-05-09T16:01:25.809Z,2.75
2018-05-09T16:03:54.680Z,3.28
2018-05-09T16:06:24.144Z,3.20
2018-05-09T16:08:53.357Z,3.08
2018-05-09T16:11:22.287Z,2.65
2018-05-09T16:13:50.969Z,3.30
2018-05-09T16:16:19.562Z,3.28
2018-05-09T16:18:48.240Z,3.58
2018-05-09T16:21:17.019Z,3.47
2018-05-09T16:23:48.779Z,4.25
2018-05-09T16:26:15.300Z,3.47
2018-05-09T16:29:05.068Z,3.62
2018-05-09T16:31:38.293Z,3.83
2018-05-09T16:34:07.044Z,3.80
2018-05-09T16:36:40.926Z,3.47
2018-05-09T16:39:07.743Z,3.72
2018-05-09T16:41:36.467Z,3.83
2018-05-09T16:44:05.494Z,3.40
2018-05-09T16:46:37.117Z,3.60
2018-05-09T16:49:05.866Z,4.47
2018-05-09T16:51:34.559Z,3.65
2018-05-09T16:54:12.052Z,3.87
2018-05-09T16:56:40.807Z,3.33
2018-05-09T16:59:25.044Z,3.08
2018-05-09T17:01:54.043Z,3.33
2018-05-09T17:04:22.635Z,3.67
2018-05-09T17:06:54.750Z,4.00
2018-05-09T17:12:08.853Z,3.70
2018-05-09T17:14:42.409Z,3.58
2018-05-09T17:17:11.109Z,3.80
2018-05-09T17:19:39.857Z,3.35
2018-05-09T17:22:37.989Z,3.65
2018-05-09T17:25:08.519Z,3.62
2018-05-09T17:27:37.483Z,4.03
2018-05-09T17:30:07.247Z,4.25
2018-05-09T17:32:36.887Z,4.13
2018-05-09T17:46:15.954Z,4.00
2018-05-09T17:48:46.353Z,3.83
2018-05-09T17:51:15.100Z,3.87
2018-05-09T17:56:48.250Z,4.22
2018-05-09T18:27:18.791Z,5.28
2018-05-09T19:30:53.704Z,7.28
2018-05-09T20:04:23.017Z,6.95
2018-05-09T20:18:27.438Z,8.15
2018-05-09T20:20:58.192Z,7.57
2018-05-09T21:25:08.396Z,8.25
2018-05-09T21:27:38.202Z,9.05
2018-05-09T21:30:09.160Z,10.15
2018-05-09T21:32:38.311Z,10.05
2018-05-09T21:35:09.810Z,9.23
2018-05-09T21:37:44.868Z,8.10
2018-05-09T21:40:14.177Z,6.93
2018-05-09T21:42:46.208Z,8.85
2018-05-09T21:45:15.368Z,10.45
2018-05-09T21:47:53.032Z,7.47
2018-05-09T21:50:23.345Z,8.93
2018-05-09T21:52:52.494Z,9.23
2018-05-09T21:55:27.611Z,9.55
2018-05-09T21:57:58.168Z,8.48
2018-05-09T22:00:35.598Z,8.90
2018-05-09T22:03:04.654Z,8.77
2018-05-09T22:05:34.235Z,9.57
2018-05-09T22:08:13.652Z,8.80
2018-05-09T22:10:42.825Z,9.27
2018-05-09T22:13:13.387Z,8.32
2018-05-09T22:15:43.242Z,9.30
2018-05-09T22:21:01.511Z,10.23
2018-05-09T22:23:34.695Z,10.55
2018-05-09T22:26:05.419Z,10.05
2018-05-09T22:28:35.372Z,10.20
2018-05-09T22:31:07.719Z,9.50
2018-05-09T22:36:28.836Z,8.37
2018-05-09T22:41:53.410Z,7.50
2018-05-09T22:44:40.470Z,7.97
2018-05-09T22:47:15.412Z,10.77
2018-05-09T22:49:44.529Z,10.13
2018-05-09T22:55:08.597Z,10.25
2018-05-09T22:57:34.455Z,9.40
2018-05-09T23:00:09.953Z,11.27
2018-05-09T23:02:47.237Z,9.43
2018-05-09T23:05:18.630Z,9.43
2018-05-09T23:07:49.288Z,8.37
2018-05-09T23:10:20.323Z,8.57
2018-05-09T23:12:51.112Z,8.70
2018-05-09T23:15:27.160Z,8.35
2018-05-09T23:20:52.406Z,8.17
2018-05-09T23:23:24.870Z,8.27
2018-05-09T23:25:55.664Z,9.75
2018-05-09T23:28:25.615Z,9.32
2018-05-09T23:42:14.858Z,7.10
2018-05-09T23:53:09.640Z,9.77
